sensor_id;sensor_type;location;lat;lon;timestamp;P1;durP1;ratioP1;P2;durP2;ratioP2
2039;SDS011;1025;42.686;23.350;2023-12-04T00:00:22;5.27;;;4.87;;
2039;SDS011;1025;42.686;23.350;2023-12-04T00:02:48;7.70;;;6.90;;
2039;SDS011;1025;42.686;23.350;2023-12-04T00:05:15;6.40;;;5.00;;
2039;SDS011;1025;42.686;23.350;2023-12-04T00:07:43;7.27;;;6.57;;
2039;SDS011;1025;42.686;23.350;2023-12-04T00:10:09;6.97;;;5.40;;
2039;SDS011;1025;42.686;23.350;2023-12-04T00:12:36;8.20;;;7.23;;
2039;SDS011;1025;42.686;23.350;2023-12-04T00:15:02;7.60;;;6.70;;
2039;SDS011;1025;42.686;23.350;2023-12-04T00:17:29;7.70;;;6.47;;
2039;SDS011;1025;42.686;23.350;2023-12-04T00:19:55;7.33;;;5.90;;
2039;SDS011;1025;42.686;23.350;2023-12-04T00:22:22;9.47;;;7.17;;
2039;SDS011;1025;42.686;23.350;2023-12-04T00:24:51;7.07;;;6.30;;
2039;SDS011;1025;42.686;23.350;2023-12-04T00:27:17;8.03;;;7.13;;
2039;SDS011;1025;42.686;23.350;2023-12-04T00:29:44;7.03;;;6.00;;
2039;SDS011;1025;42.686;23.350;2023-12-04T00:32:11;7.37;;;6.10;;
2039;SDS011;1025;42.686;23.350;2023-12-04T00:34:37;9.43;;;6.43;;
2039;SDS011;1025;42.686;23.350;2023-12-04T00:37:04;7.70;;;6.10;;
2039;SDS011;1025;42.686;23.350;2023-12-04T00:39:30;7.87;;;6.60;;
2039;SDS011;1025;42.686;23.350;2023-12-04T00:41:58;8.13;;;6.40;;
2039;SDS011;1025;42.686;23.350;2023-12-04T00:44:25;8.33;;;6.30;;
2039;SDS011;1025;42.686;23.350;2023-12-04T00:46:51;6.93;;;6.13;;
2039;SDS011;1025;42.686;23.350;2023-12-04T00:49:18;10.20;;;6.77;;
2039;SDS011;1025;42.686;23.350;2023-12-04T00:51:44;7.20;;;6.40;;
2039;SDS011;1025;42.686;23.350;2023-12-04T00:54:11;7.97;;;7.13;;
2039;SDS011;1025;42.686;23.350;2023-12-04T00:56:38;6.90;;;6.23;;
2039;SDS011;1025;42.686;23.350;2023-12-04T00:59:07;6.57;;;5.57;;
2039;SDS011;1025;42.686;23.350;2023-12-04T01:01:33;6.77;;;6.07;;
2039;SDS011;1025;42.686;23.350;2023-12-04T01:03:59;8.70;;;6.53;;
2039;SDS011;1025;42.686;23.350;2023-12-04T01:06:26;9.70;;;7.27;;
2039;SDS011;1025;42.686;23.350;2023-12-04T01:08:53;7.00;;;5.37;;
2039;SDS011;1025;42.686;23.350;2023-12-04T01:11:20;6.10;;;4.90;;
2039;SDS011;1025;42.686;23.350;2023-12-04T01:13:46;9.70;;;7.23;;
2039;SDS011;1025;42.686;23.350;2023-12-04T01:16:14;11.60;;;6.07;;
2039;SDS011;1025;42.686;23.350;2023-12-04T01:18:42;6.53;;;5.93;;
2039;SDS011;1025;42.686;23.350;2023-12-04T01:21:08;8.10;;;5.90;;
2039;SDS011;1025;42.686;23.350;2023-12-04T01:23:35;8.00;;;7.20;;
2039;SDS011;1025;42.686;23.350;2023-12-04T01:26:02;7.53;;;6.83;;
2039;SDS011;1025;42.686;23.350;2023-12-04T01:28:29;9.87;;;7.73;;
2039;SDS011;1025;42.686;23.350;2023-12-04T01:30:55;9.63;;;7.70;;
2039;SDS011;1025;42.686;23.350;2023-12-04T01:33:23;9.33;;;7.50;;
2039;SDS011;1025;42.686;23.350;2023-12-04T01:35:49;7.67;;;5.97;;
2039;SDS011;1025;42.686;23.350;2023-12-04T01:38:16;5.07;;;4.67;;
2039;SDS011;1025;42.686;23.350;2023-12-04T01:40:43;7.20;;;6.50;;
2039;SDS011;1025;42.686;23.350;2023-12-04T01:43:09;6.53;;;5.30;;
2039;SDS011;1025;42.686;23.350;2023-12-04T01:45:36;7.07;;;6.37;;
2039;SDS011;1025;42.686;23.350;2023-12-04T01:48:03;6.60;;;5.90;;
2039;SDS011;1025;42.686;23.350;2023-12-04T01:50:32;8.87;;;7.17;;
2039;SDS011;1025;42.686;23.350;2023-12-04T01:52:59;5.70;;;5.20;;
2039;SDS011;1025;42.686;23.350;2023-12-04T01:55:26;9.00;;;6.70;;
2039;SDS011;1025;42.686;23.350;2023-12-04T01:57:53;8.67;;;6.73;;
2039;SDS011;1025;42.686;23.350;2023-12-04T02:00:21;7.93;;;6.17;;
2039;SDS011;1025;42.686;23.350;2023-12-04T02:02:48;8.50;;;6.60;;
2039;SDS011;1025;42.686;23.350;2023-12-04T02:05:14;7.37;;;6.57;;
2039;SDS011;1025;42.686;23.350;2023-12-04T02:07:43;6.13;;;5.63;;
2039;SDS011;1025;42.686;23.350;2023-12-04T02:10:10;6.93;;;5.47;;
2039;SDS011;1025;42.686;23.350;2023-12-04T02:12:36;6.83;;;6.00;;
2039;SDS011;1025;42.686;23.350;2023-12-04T02:15:03;6.13;;;5.57;;
2039;SDS011;1025;42.686;23.350;2023-12-04T02:17:30;4.27;;;3.77;;
2039;SDS011;1025;42.686;23.350;2023-12-04T02:19:59;6.67;;;6.10;;
2039;SDS011;1025;42.686;23.350;2023-12-04T02:22:25;4.87;;;4.33;;
2039;SDS011;1025;42.686;23.350;2023-12-04T02:24:53;8.30;;;5.90;;
2039;SDS011;1025;42.686;23.350;2023-12-04T02:27:25;7.10;;;6.00;;
2039;SDS011;1025;42.686;23.350;2023-12-04T02:29:53;8.00;;;6.07;;
2039;SDS011;1025;42.686;23.350;2023-12-04T02:32:21;5.90;;;4.93;;
2039;SDS011;1025;42.686;23.350;2023-12-04T02:34:49;5.90;;;5.30;;
2039;SDS011;1025;42.686;23.350;2023-12-04T02:37:16;6.97;;;5.60;;
2039;SDS011;1025;42.686;23.350;2023-12-04T02:39:43;6.90;;;6.20;;
2039;SDS011;1025;42.686;23.350;2023-12-04T02:42:12;6.07;;;5.47;;
2039;SDS011;1025;42.686;23.350;2023-12-04T02:44:39;6.53;;;5.80;;
2039;SDS011;1025;42.686;23.350;2023-12-04T02:47:06;6.30;;;5.27;;
2039;SDS011;1025;42.686;23.350;2023-12-04T02:49:32;4.80;;;4.30;;
2039;SDS011;1025;42.686;23.350;2023-12-04T02:51:59;7.87;;;6.60;;
2039;SDS011;1025;42.686;23.350;2023-12-04T02:54:25;7.50;;;5.20;;
2039;SDS011;1025;42.686;23.350;2023-12-04T02:56:52;4.90;;;4.30;;
2039;SDS011;1025;42.686;23.350;2023-12-04T02:59:20;8.07;;;7.23;;
2039;SDS011;1025;42.686;23.350;2023-12-04T03:01:46;8.77;;;5.50;;
2039;SDS011;1025;42.686;23.350;2023-12-04T03:04:13;6.07;;;5.47;;
2039;SDS011;1025;42.686;23.350;2023-12-04T03:06:39;8.40;;;6.80;;
2039;SDS011;1025;42.686;23.350;2023-12-04T03:09:06;7.80;;;7.00;;
2039;SDS011;1025;42.686;23.350;2023-12-04T03:11:32;6.93;;;6.27;;
2039;SDS011;1025;42.686;23.350;2023-12-04T03:13:59;8.20;;;7.13;;
2039;SDS011;1025;42.686;23.350;2023-12-04T03:16:27;10.13;;;6.87;;
2039;SDS011;1025;42.686;23.350;2023-12-04T03:18:54;8.90;;;6.77;;
2039;SDS011;1025;42.686;23.350;2023-12-04T03:21:21;10.07;;;6.70;;
2039;SDS011;1025;42.686;23.350;2023-12-04T03:23:48;6.60;;;5.93;;
2039;SDS011;1025;42.686;23.350;2023-12-04T03:26:14;7.13;;;6.40;;
2039;SDS011;1025;42.686;23.350;2023-12-04T03:28:41;5.50;;;5.00;;
2039;SDS011;1025;42.686;23.350;2023-12-04T03:31:07;7.07;;;6.37;;
2039;SDS011;1025;42.686;23.350;2023-12-04T03:33:35;6.93;;;6.20;;
2039;SDS011;1025;42.686;23.350;2023-12-04T03:36:02;8.23;;;5.97;;
2039;SDS011;1025;42.686;23.350;2023-12-04T03:38:28;9.33;;;6.27;;
2039;SDS011;1025;42.686;23.350;2023-12-04T03:40:55;9.67;;;7.57;;
2039;SDS011;1025;42.686;23.350;2023-12-04T03:43:21;6.73;;;5.90;;
2039;SDS011;1025;42.686;23.350;2023-12-04T03:45:48;6.67;;;4.67;;
2039;SDS011;1025;42.686;23.350;2023-12-04T03:48:14;7.67;;;5.67;;
2039;SDS011;1025;42.686;23.350;2023-12-04T03:50:42;9.43;;;6.30;;
2039;SDS011;1025;42.686;23.350;2023-12-04T03:53:09;7.63;;;6.67;;
2039;SDS011;1025;42.686;23.350;2023-12-04T03:55:35;4.27;;;3.50;;
2039;SDS011;1025;42.686;23.350;2023-12-04T03:58:02;10.23;;;5.20;;
2039;SDS011;1025;42.686;23.350;2023-12-04T04:00:29;5.20;;;4.60;;
2039;SDS011;1025;42.686;23.350;2023-12-04T04:02:55;5.97;;;5.07;;
2039;SDS011;1025;42.686;23.350;2023-12-04T04:05:22;6.27;;;5.77;;
2039;SDS011;1025;42.686;23.350;2023-12-04T04:07:50;8.50;;;5.60;;
2039;SDS011;1025;42.686;23.350;2023-12-04T04:10:16;7.37;;;5.77;;
2039;SDS011;1025;42.686;23.350;2023-12-04T04:12:43;7.23;;;6.53;;
2039;SDS011;1025;42.686;23.350;2023-12-04T04:15:09;7.90;;;6.30;;
2039;SDS011;1025;42.686;23.350;2023-12-04T04:17:36;6.13;;;5.00;;
2039;SDS011;1025;42.686;23.350;2023-12-04T04:20:03;8.33;;;5.50;;
2039;SDS011;1025;42.686;23.350;2023-12-04T04:22:29;3.73;;;3.43;;
2039;SDS011;1025;42.686;23.350;2023-12-04T04:25:00;8.40;;;6.50;;
2039;SDS011;1025;42.686;23.350;2023-12-04T04:27:27;6.47;;;5.13;;
2039;SDS011;1025;42.686;23.350;2023-12-04T04:29:54;7.87;;;7.00;;
2039;SDS011;1025;42.686;23.350;2023-12-04T04:32:20;6.20;;;5.33;;
2039;SDS011;1025;42.686;23.350;2023-12-04T04:34:47;6.60;;;4.37;;
2039;SDS011;1025;42.686;23.350;2023-12-04T04:37:14;6.60;;;5.77;;
2039;SDS011;1025;42.686;23.350;2023-12-04T04:39:41;8.53;;;6.80;;
2039;SDS011;1025;42.686;23.350;2023-12-04T04:42:08;6.57;;;5.90;;
2039;SDS011;1025;42.686;23.350;2023-12-04T04:44:35;7.27;;;6.20;;
2039;SDS011;1025;42.686;23.350;2023-12-04T04:47:01;6.17;;;5.57;;
2039;SDS011;1025;42.686;23.350;2023-12-04T04:49:28;9.33;;;8.30;;
2039;SDS011;1025;42.686;23.350;2023-12-04T04:51:55;6.17;;;5.57;;
2039;SDS011;1025;42.686;23.350;2023-12-04T04:54:31;10.20;;;6.90;;
2039;SDS011;1025;42.686;23.350;2023-12-04T04:56:58;9.23;;;6.77;;
2039;SDS011;1025;42.686;23.350;2023-12-04T04:59:35;8.27;;;6.70;;
2039;SDS011;1025;42.686;23.350;2023-12-04T05:02:02;12.13;;;6.03;;
2039;SDS011;1025;42.686;23.350;2023-12-04T05:04:29;9.93;;;6.30;;
2039;SDS011;1025;42.686;23.350;2023-12-04T05:06:55;9.13;;;7.17;;
2039;SDS011;1025;42.686;23.350;2023-12-04T05:09:22;13.90;;;6.20;;
2039;SDS011;1025;42.686;23.350;2023-12-04T05:11:49;7.60;;;6.40;;
2039;SDS011;1025;42.686;23.350;2023-12-04T05:14:15;9.73;;;6.40;;
2039;SDS011;1025;42.686;23.350;2023-12-04T05:16:43;7.93;;;6.80;;
2039;SDS011;1025;42.686;23.350;2023-12-04T05:19:10;9.13;;;6.90;;
2039;SDS011;1025;42.686;23.350;2023-12-04T05:21:36;12.40;;;8.87;;
2039;SDS011;1025;42.686;23.350;2023-12-04T05:24:03;7.47;;;6.80;;
2039;SDS011;1025;42.686;23.350;2023-12-04T05:26:30;9.27;;;8.37;;
2039;SDS011;1025;42.686;23.350;2023-12-04T05:28:56;8.13;;;6.20;;
2039;SDS011;1025;42.686;23.350;2023-12-04T05:31:23;9.00;;;5.73;;
2039;SDS011;1025;42.686;23.350;2023-12-04T05:33:50;11.27;;;8.57;;
2039;SDS011;1025;42.686;23.350;2023-12-04T05:36:17;10.37;;;7.33;;
2039;SDS011;1025;42.686;23.350;2023-12-04T05:38:43;11.10;;;7.77;;
2039;SDS011;1025;42.686;23.350;2023-12-04T05:41:10;8.93;;;8.03;;
2039;SDS011;1025;42.686;23.350;2023-12-04T05:43:36;9.63;;;7.90;;
2039;SDS011;1025;42.686;23.350;2023-12-04T05:46:03;9.33;;;7.50;;
2039;SDS011;1025;42.686;23.350;2023-12-04T05:48:30;9.43;;;5.50;;
2039;SDS011;1025;42.686;23.350;2023-12-04T05:50:58;11.53;;;9.07;;
2039;SDS011;1025;42.686;23.350;2023-12-04T05:53:23;8.30;;;6.97;;
2039;SDS011;1025;42.686;23.350;2023-12-04T05:55:50;15.10;;;7.70;;
2039;SDS011;1025;42.686;23.350;2023-12-04T05:58:17;9.70;;;7.40;;
2039;SDS011;1025;42.686;23.350;2023-12-04T06:00:43;7.77;;;6.77;;
2039;SDS011;1025;42.686;23.350;2023-12-04T06:03:10;8.13;;;7.30;;
2039;SDS011;1025;42.686;23.350;2023-12-04T06:05:37;8.07;;;7.20;;
2039;SDS011;1025;42.686;23.350;2023-12-04T06:08:05;10.20;;;8.07;;
2039;SDS011;1025;42.686;23.350;2023-12-04T06:10:31;12.03;;;7.30;;
2039;SDS011;1025;42.686;23.350;2023-12-04T06:13:00;10.90;;;6.87;;
2039;SDS011;1025;42.686;23.350;2023-12-04T06:15:26;12.63;;;8.50;;
2039;SDS011;1025;42.686;23.350;2023-12-04T06:17:53;11.20;;;8.70;;
2039;SDS011;1025;42.686;23.350;2023-12-04T06:20:19;14.87;;;9.27;;
2039;SDS011;1025;42.686;23.350;2023-12-04T06:22:46;8.87;;;8.10;;
2039;SDS011;1025;42.686;23.350;2023-12-04T06:25:15;13.60;;;7.10;;
2039;SDS011;1025;42.686;23.350;2023-12-04T06:27:42;8.67;;;6.70;;
2039;SDS011;1025;42.686;23.350;2023-12-04T06:30:09;8.67;;;7.50;;
2039;SDS011;1025;42.686;23.350;2023-12-04T06:32:35;13.80;;;7.67;;
2039;SDS011;1025;42.686;23.350;2023-12-04T06:35:02;10.90;;;8.77;;
2039;SDS011;1025;42.686;23.350;2023-12-04T06:37:30;9.97;;;7.70;;
2039;SDS011;1025;42.686;23.350;2023-12-04T06:39:57;9.60;;;6.60;;
2039;SDS011;1025;42.686;23.350;2023-12-04T06:42:29;9.03;;;6.17;;
2039;SDS011;1025;42.686;23.350;2023-12-04T06:44:56;7.63;;;6.77;;
2039;SDS011;1025;42.686;23.350;2023-12-04T06:47:22;21.10;;;10.17;;
2039;SDS011;1025;42.686;23.350;2023-12-04T06:49:49;9.17;;;7.07;;
2039;SDS011;1025;42.686;23.350;2023-12-04T06:52:16;8.63;;;7.37;;
2039;SDS011;1025;42.686;23.350;2023-12-04T06:54:42;13.00;;;9.07;;
2039;SDS011;1025;42.686;23.350;2023-12-04T06:57:09;14.00;;;10.77;;
2039;SDS011;1025;42.686;23.350;2023-12-04T06:59:36;7.53;;;6.37;;
2039;SDS011;1025;42.686;23.350;2023-12-04T07:02:03;10.17;;;7.63;;
2039;SDS011;1025;42.686;23.350;2023-12-04T07:04:30;13.77;;;8.13;;
2039;SDS011;1025;42.686;23.350;2023-12-04T07:06:57;10.00;;;5.97;;
2039;SDS011;1025;42.686;23.350;2023-12-04T07:09:29;15.50;;;8.30;;
2039;SDS011;1025;42.686;23.350;2023-12-04T07:11:56;8.90;;;7.10;;
2039;SDS011;1025;42.686;23.350;2023-12-04T07:14:23;11.47;;;7.17;;
2039;SDS011;1025;42.686;23.350;2023-12-04T07:16:51;11.83;;;8.50;;
2039;SDS011;1025;42.686;23.350;2023-12-04T07:19:17;13.00;;;11.20;;
2039;SDS011;1025;42.686;23.350;2023-12-04T07:21:44;12.03;;;7.67;;
2039;SDS011;1025;42.686;23.350;2023-12-04T07:24:10;25.13;;;12.23;;
2039;SDS011;1025;42.686;23.350;2023-12-04T07:26:37;9.90;;;7.77;;
2039;SDS011;1025;42.686;23.350;2023-12-04T07:29:04;15.13;;;10.13;;
2039;SDS011;1025;42.686;23.350;2023-12-04T07:31:31;12.60;;;8.20;;
2039;SDS011;1025;42.686;23.350;2023-12-04T07:33:59;8.40;;;7.70;;
2039;SDS011;1025;42.686;23.350;2023-12-04T07:36:27;8.47;;;7.53;;
2039;SDS011;1025;42.686;23.350;2023-12-04T07:38:53;12.03;;;8.30;;
2039;SDS011;1025;42.686;23.350;2023-12-04T07:41:20;7.70;;;5.63;;
2039;SDS011;1025;42.686;23.350;2023-12-04T07:43:47;5.40;;;4.90;;
2039;SDS011;1025;42.686;23.350;2023-12-04T07:46:13;7.83;;;6.43;;
2039;SDS011;1025;42.686;23.350;2023-12-04T07:48:40;8.73;;;7.83;;
2039;SDS011;1025;42.686;23.350;2023-12-04T07:51:09;7.17;;;6.43;;
2039;SDS011;1025;42.686;23.350;2023-12-04T07:53:36;9.33;;;7.80;;
2039;SDS011;1025;42.686;23.350;2023-12-04T07:56:02;14.93;;;11.67;;
2039;SDS011;1025;42.686;23.350;2023-12-04T07:58:30;11.37;;;7.23;;
2039;SDS011;1025;42.686;23.350;2023-12-04T08:00:56;9.00;;;7.07;;
2039;SDS011;1025;42.686;23.350;2023-12-04T08:03:23;11.03;;;6.30;;
2039;SDS011;1025;42.686;23.350;2023-12-04T08:05:50;8.80;;;7.47;;
2039;SDS011;1025;42.686;23.350;2023-12-04T08:08:17;9.20;;;7.47;;
2039;SDS011;1025;42.686;23.350;2023-12-04T08:10:44;8.63;;;6.80;;
2039;SDS011;1025;42.686;23.350;2023-12-04T08:13:10;6.97;;;6.37;;
2039;SDS011;1025;42.686;23.350;2023-12-04T08:15:37;10.50;;;6.87;;
2039;SDS011;1025;42.686;23.350;2023-12-04T08:18:04;12.30;;;6.10;;
2039;SDS011;1025;42.686;23.350;2023-12-04T08:20:30;10.43;;;9.33;;
2039;SDS011;1025;42.686;23.350;2023-12-04T08:22:58;12.87;;;8.73;;
2039;SDS011;1025;42.686;23.350;2023-12-04T08:25:26;11.10;;;7.50;;
2039;SDS011;1025;42.686;23.350;2023-12-04T08:27:52;10.47;;;7.00;;
2039;SDS011;1025;42.686;23.350;2023-12-04T08:30:19;12.57;;;7.80;;
2039;SDS011;1025;42.686;23.350;2023-12-04T08:32:45;9.00;;;5.63;;
2039;SDS011;1025;42.686;23.350;2023-12-04T08:35:12;5.47;;;4.97;;
2039;SDS011;1025;42.686;23.350;2023-12-04T08:37:39;13.53;;;6.27;;
2039;SDS011;1025;42.686;23.350;2023-12-04T08:40:06;10.70;;;7.67;;
2039;SDS011;1025;42.686;23.350;2023-12-04T08:42:34;9.80;;;6.80;;
2039;SDS011;1025;42.686;23.350;2023-12-04T08:45:01;6.37;;;5.77;;
2039;SDS011;1025;42.686;23.350;2023-12-04T08:47:30;8.00;;;6.70;;
2039;SDS011;1025;42.686;23.350;2023-12-04T08:49:59;9.13;;;6.90;;
2039;SDS011;1025;42.686;23.350;2023-12-04T08:52:25;9.57;;;5.10;;
2039;SDS011;1025;42.686;23.350;2023-12-04T08:54:52;6.53;;;5.20;;
2039;SDS011;1025;42.686;23.350;2023-12-04T08:57:19;11.20;;;7.60;;
2039;SDS011;1025;42.686;23.350;2023-12-04T08:59:47;10.00;;;6.37;;
2039;SDS011;1025;42.686;23.350;2023-12-04T09:02:13;9.50;;;6.00;;
2039;SDS011;1025;42.686;23.350;2023-12-04T09:04:40;8.40;;;5.67;;
2039;SDS011;1025;42.686;23.350;2023-12-04T09:07:06;17.53;;;8.27;;
2039;SDS011;1025;42.686;23.350;2023-12-04T09:09:33;9.37;;;6.87;;
2039;SDS011;1025;42.686;23.350;2023-12-04T09:11:59;6.67;;;6.00;;
2039;SDS011;1025;42.686;23.350;2023-12-04T09:14:26;6.50;;;5.97;;
2039;SDS011;1025;42.686;23.350;2023-12-04T09:16:54;12.10;;;7.80;;
2039;SDS011;1025;42.686;23.350;2023-12-04T09:19:21;10.00;;;7.90;;
2039;SDS011;1025;42.686;23.350;2023-12-04T09:21:47;8.63;;;6.73;;
2039;SDS011;1025;42.686;23.350;2023-12-04T09:24:14;6.43;;;5.83;;
2039;SDS011;1025;42.686;23.350;2023-12-04T09:26:40;8.40;;;7.27;;
2039;SDS011;1025;42.686;23.350;2023-12-04T09:29:08;6.53;;;4.57;;
2039;SDS011;1025;42.686;23.350;2023-12-04T09:31:35;6.93;;;6.03;;
2039;SDS011;1025;42.686;23.350;2023-12-04T09:34:03;11.83;;;5.40;;
2039;SDS011;1025;42.686;23.350;2023-12-04T09:36:29;6.20;;;5.70;;
2039;SDS011;1025;42.686;23.350;2023-12-04T09:38:56;11.20;;;7.97;;
2039;SDS011;1025;42.686;23.350;2023-12-04T09:41:22;12.80;;;7.40;;
2039;SDS011;1025;42.686;23.350;2023-12-04T09:43:49;11.30;;;6.80;;
2039;SDS011;1025;42.686;23.350;2023-12-04T09:46:15;8.47;;;7.60;;
2039;SDS011;1025;42.686;23.350;2023-12-04T09:48:43;8.03;;;6.40;;
2039;SDS011;1025;42.686;23.350;2023-12-04T09:51:11;9.77;;;8.80;;
2039;SDS011;1025;42.686;23.350;2023-12-04T09:53:39;11.57;;;7.40;;
2039;SDS011;1025;42.686;23.350;2023-12-04T09:56:06;9.60;;;6.50;;
2039;SDS011;1025;42.686;23.350;2023-12-04T09:58:34;8.13;;;5.83;;
2039;SDS011;1025;42.686;23.350;2023-12-04T10:01:02;7.77;;;5.43;;
2039;SDS011;1025;42.686;23.350;2023-12-04T10:03:29;7.30;;;5.40;;
2039;SDS011;1025;42.686;23.350;2023-12-04T10:05:56;9.00;;;6.70;;
2039;SDS011;1025;42.686;23.350;2023-12-04T10:08:24;7.80;;;7.03;;
2039;SDS011;1025;42.686;23.350;2023-12-04T10:10:51;8.93;;;7.83;;
2039;SDS011;1025;42.686;23.350;2023-12-04T10:13:17;6.87;;;6.27;;
2039;SDS011;1025;42.686;23.350;2023-12-04T10:15:47;9.97;;;7.10;;
2039;SDS011;1025;42.686;23.350;2023-12-04T10:18:26;8.13;;;5.13;;
2039;SDS011;1025;42.686;23.350;2023-12-04T10:20:55;7.53;;;6.63;;
2039;SDS011;1025;42.686;23.350;2023-12-04T10:23:22;8.57;;;5.90;;
2039;SDS011;1025;42.686;23.350;2023-12-04T10:25:50;7.27;;;6.60;;
2039;SDS011;1025;42.686;23.350;2023-12-04T10:28:17;7.37;;;6.67;;
2039;SDS011;1025;42.686;23.350;2023-12-04T10:30:44;9.13;;;8.13;;
2039;SDS011;1025;42.686;23.350;2023-12-04T10:33:11;8.00;;;7.20;;
2039;SDS011;1025;42.686;23.350;2023-12-04T10:35:39;11.27;;;5.47;;
2039;SDS011;1025;42.686;23.350;2023-12-04T10:38:06;8.23;;;6.80;;
2039;SDS011;1025;42.686;23.350;2023-12-04T10:40:33;7.87;;;6.23;;
2039;SDS011;1025;42.686;23.350;2023-12-04T10:43:14;7.70;;;6.80;;
2039;SDS011;1025;42.686;23.350;2023-12-04T10:45:41;8.73;;;6.17;;
2039;SDS011;1025;42.686;23.350;2023-12-04T10:48:09;7.63;;;6.30;;
2039;SDS011;1025;42.686;23.350;2023-12-04T10:50:36;8.80;;;7.33;;
2039;SDS011;1025;42.686;23.350;2023-12-04T10:53:03;6.47;;;5.83;;
2039;SDS011;1025;42.686;23.350;2023-12-04T10:55:30;8.83;;;6.87;;
2039;SDS011;1025;42.686;23.350;2023-12-04T10:57:57;8.67;;;7.30;;
2039;SDS011;1025;42.686;23.350;2023-12-04T11:00:26;10.43;;;6.70;;
2039;SDS011;1025;42.686;23.350;2023-12-04T11:02:55;9.87;;;7.33;;
2039;SDS011;1025;42.686;23.350;2023-12-04T11:05:22;9.63;;;7.50;;
2039;SDS011;1025;42.686;23.350;2023-12-04T11:07:50;8.47;;;7.30;;
2039;SDS011;1025;42.686;23.350;2023-12-04T11:10:19;7.80;;;6.93;;
2039;SDS011;1025;42.686;23.350;2023-12-04T11:12:45;15.23;;;7.30;;
2039;SDS011;1025;42.686;23.350;2023-12-04T11:15:14;11.63;;;10.50;;
2039;SDS011;1025;42.686;23.350;2023-12-04T11:17:44;9.10;;;7.50;;
2039;SDS011;1025;42.686;23.350;2023-12-04T11:20:16;8.80;;;7.50;;
2039;SDS011;1025;42.686;23.350;2023-12-04T11:22:44;10.20;;;9.20;;
2039;SDS011;1025;42.686;23.350;2023-12-04T11:25:11;14.03;;;8.30;;
2039;SDS011;1025;42.686;23.350;2023-12-04T11:27:39;12.80;;;8.40;;
2039;SDS011;1025;42.686;23.350;2023-12-04T11:30:06;8.80;;;6.80;;
2039;SDS011;1025;42.686;23.350;2023-12-04T11:32:38;11.40;;;7.90;;
2039;SDS011;1025;42.686;23.350;2023-12-04T11:35:14;7.00;;;6.20;;
2039;SDS011;1025;42.686;23.350;2023-12-04T11:37:42;8.37;;;6.40;;
2039;SDS011;1025;42.686;23.350;2023-12-04T11:40:11;7.10;;;6.47;;
2039;SDS011;1025;42.686;23.350;2023-12-04T11:42:37;9.60;;;7.10;;
2039;SDS011;1025;42.686;23.350;2023-12-04T11:45:05;9.13;;;6.30;;
2039;SDS011;1025;42.686;23.350;2023-12-04T11:47:35;7.67;;;6.93;;
2039;SDS011;1025;42.686;23.350;2023-12-04T11:50:16;12.03;;;6.33;;
2039;SDS011;1025;42.686;23.350;2023-12-04T11:52:42;7.13;;;6.43;;
2039;SDS011;1025;42.686;23.350;2023-12-04T11:55:08;10.10;;;7.83;;
2039;SDS011;1025;42.686;23.350;2023-12-04T11:57:36;6.87;;;6.27;;
2039;SDS011;1025;42.686;23.350;2023-12-04T12:00:10;7.70;;;6.90;;
2039;SDS011;1025;42.686;23.350;2023-12-04T12:02:37;8.00;;;7.27;;
2039;SDS011;1025;42.686;23.350;2023-12-04T12:05:04;11.60;;;9.40;;
2039;SDS011;1025;42.686;23.350;2023-12-04T12:07:32;9.90;;;6.00;;
2039;SDS011;1025;42.686;23.350;2023-12-04T12:09:59;7.73;;;6.93;;
2039;SDS011;1025;42.686;23.350;2023-12-04T12:12:25;10.17;;;8.03;;
2039;SDS011;1025;42.686;23.350;2023-12-04T12:14:52;10.37;;;7.40;;
2039;SDS011;1025;42.686;23.350;2023-12-04T12:17:19;7.03;;;6.33;;
2039;SDS011;1025;42.686;23.350;2023-12-04T12:19:46;11.23;;;7.93;;
2039;SDS011;1025;42.686;23.350;2023-12-04T12:22:12;9.47;;;7.40;;
2039;SDS011;1025;42.686;23.350;2023-12-04T12:24:40;8.20;;;7.40;;
2039;SDS011;1025;42.686;23.350;2023-12-04T12:27:07;13.87;;;9.10;;
2039;SDS011;1025;42.686;23.350;2023-12-04T12:29:33;9.63;;;7.93;;
2039;SDS011;1025;42.686;23.350;2023-12-04T12:32:00;14.37;;;8.40;;
2039;SDS011;1025;42.686;23.350;2023-12-04T12:34:28;9.10;;;8.20;;
2039;SDS011;1025;42.686;23.350;2023-12-04T12:36:54;8.43;;;7.20;;
2039;SDS011;1025;42.686;23.350;2023-12-04T12:39:21;12.70;;;7.93;;
2039;SDS011;1025;42.686;23.350;2023-12-04T12:41:49;11.27;;;9.33;;
2039;SDS011;1025;42.686;23.350;2023-12-04T12:44:15;14.00;;;12.33;;
2039;SDS011;1025;42.686;23.350;2023-12-04T12:46:46;18.27;;;10.73;;
2039;SDS011;1025;42.686;23.350;2023-12-04T12:49:13;23.60;;;12.40;;
2039;SDS011;1025;42.686;23.350;2023-12-04T12:51:40;18.80;;;12.80;;
2039;SDS011;1025;42.686;23.350;2023-12-04T12:54:06;14.20;;;11.10;;
2039;SDS011;1025;42.686;23.350;2023-12-04T12:56:33;13.83;;;12.43;;
2039;SDS011;1025;42.686;23.350;2023-12-04T12:59:02;17.37;;;12.00;;
2039;SDS011;1025;42.686;23.350;2023-12-04T13:01:30;17.13;;;11.10;;
2039;SDS011;1025;42.686;23.350;2023-12-04T13:03:57;15.90;;;10.57;;
2039;SDS011;1025;42.686;23.350;2023-12-04T13:06:24;13.23;;;11.87;;
2039;SDS011;1025;42.686;23.350;2023-12-04T13:08:50;12.00;;;10.30;;
2039;SDS011;1025;42.686;23.350;2023-12-04T13:11:17;12.97;;;9.47;;
2039;SDS011;1025;42.686;23.350;2023-12-04T13:13:43;15.77;;;11.23;;
2039;SDS011;1025;42.686;23.350;2023-12-04T13:16:11;18.97;;;12.60;;
2039;SDS011;1025;42.686;23.350;2023-12-04T13:18:38;14.33;;;11.73;;
2039;SDS011;1025;42.686;23.350;2023-12-04T13:21:05;17.20;;;12.83;;
2039;SDS011;1025;42.686;23.350;2023-12-04T13:23:34;13.33;;;12.03;;
2039;SDS011;1025;42.686;23.350;2023-12-04T13:26:00;16.50;;;11.90;;
2039;SDS011;1025;42.686;23.350;2023-12-04T13:28:28;15.30;;;11.00;;
2039;SDS011;1025;42.686;23.350;2023-12-04T13:30:55;12.07;;;10.80;;
2039;SDS011;1025;42.686;23.350;2023-12-04T13:33:23;12.70;;;10.80;;
2039;SDS011;1025;42.686;23.350;2023-12-04T13:35:50;14.63;;;10.83;;
2039;SDS011;1025;42.686;23.350;2023-12-04T13:38:16;15.70;;;10.03;;
2039;SDS011;1025;42.686;23.350;2023-12-04T13:40:43;16.97;;;11.13;;
2039;SDS011;1025;42.686;23.350;2023-12-04T13:43:24;13.80;;;9.53;;
2039;SDS011;1025;42.686;23.350;2023-12-04T13:46:08;15.20;;;10.47;;
2039;SDS011;1025;42.686;23.350;2023-12-04T13:48:36;13.10;;;10.40;;
2039;SDS011;1025;42.686;23.350;2023-12-04T13:51:05;16.40;;;11.10;;
2039;SDS011;1025;42.686;23.350;2023-12-04T13:53:32;11.00;;;9.93;;
2039;SDS011;1025;42.686;23.350;2023-12-04T13:55:59;14.17;;;9.70;;
2039;SDS011;1025;42.686;23.350;2023-12-04T13:58:46;11.53;;;9.63;;
2039;SDS011;1025;42.686;23.350;2023-12-04T14:01:20;14.20;;;11.07;;
2039;SDS011;1025;42.686;23.350;2023-12-04T14:03:50;13.27;;;9.03;;
2039;SDS011;1025;42.686;23.350;2023-12-04T14:06:17;14.70;;;10.43;;
2039;SDS011;1025;42.686;23.350;2023-12-04T14:08:44;17.33;;;8.73;;
2039;SDS011;1025;42.686;23.350;2023-12-04T14:11:11;15.60;;;9.43;;
2039;SDS011;1025;42.686;23.350;2023-12-04T14:13:39;12.60;;;8.87;;
2039;SDS011;1025;42.686;23.350;2023-12-04T14:16:06;14.83;;;11.43;;
2039;SDS011;1025;42.686;23.350;2023-12-04T14:18:33;12.23;;;8.70;;
2039;SDS011;1025;42.686;23.350;2023-12-04T14:21:01;9.80;;;8.37;;
2039;SDS011;1025;42.686;23.350;2023-12-04T14:23:27;11.83;;;9.03;;
2039;SDS011;1025;42.686;23.350;2023-12-04T14:25:54;9.97;;;8.97;;
2039;SDS011;1025;42.686;23.350;2023-12-04T14:28:20;10.47;;;8.00;;
2039;SDS011;1025;42.686;23.350;2023-12-04T14:30:47;10.73;;;8.30;;
2039;SDS011;1025;42.686;23.350;2023-12-04T14:33:13;13.90;;;8.30;;
2039;SDS011;1025;42.686;23.350;2023-12-04T14:35:40;15.93;;;10.20;;
2039;SDS011;1025;42.686;23.350;2023-12-04T14:38:08;12.43;;;7.97;;
2039;SDS011;1025;42.686;23.350;2023-12-04T14:40:35;13.80;;;8.30;;
2039;SDS011;1025;42.686;23.350;2023-12-04T14:43:01;11.90;;;8.20;;
2039;SDS011;1025;42.686;23.350;2023-12-04T14:45:28;14.10;;;9.73;;
2039;SDS011;1025;42.686;23.350;2023-12-04T14:47:55;12.43;;;10.80;;
2039;SDS011;1025;42.686;23.350;2023-12-04T14:50:23;11.40;;;10.30;;
2039;SDS011;1025;42.686;23.350;2023-12-04T14:52:49;16.10;;;11.80;;
2039;SDS011;1025;42.686;23.350;2023-12-04T14:55:18;13.50;;;9.50;;